Time;durP1;ratioP1;P1;durP2;ratioP2;P2;SDS_P1;SDS_P2;PMS_P1;PMS_P2;Temp;Humidity;BMP_temperature;BMP_pressure;BME280_temperature;BME280_humidity;BME280_pressure;Samples;Min_cycle;Max_cycle;Signal;HPM_P1;HPM_P2
2022/01/20 00:01:10;;;;;;;4.55;3.70;;;3.10;99.90;;;;;;4989819;28;20238;-77
2022/01/20 00:03:38;;;;;;;3.67;3.00;;;3.00;99.90;;;;;;4989564;28;20203;-77
2022/01/20 00:27:49;;;;;;;3.67;3.30;;;3.20;99.90;;;;;;4989604;28;20727;-76
2022/01/20 00:32:56;;;;;;;4.73;3.27;;;3.20;99.90;;;;;;4989474;28;20195;-76
2022/01/20 00:35:26;;;;;;;3.63;3.30;;;3.00;99.90;;;;;;4988997;28;20457;-77
2022/01/20 00:37:52;;;;;;;3.90;3.58;;;2.90;99.90;;;;;;4991865;28;20188;-76
2022/01/20 00:40:18;;;;;;;4.77;3.83;;;2.90;99.90;;;;;;4989614;28;20179;-77
2022/01/20 00:42:44;;;;;;;3.92;3.13;;;2.90;99.90;;;;;;4989179;28;20187;-77
2022/01/20 00:45:10;;;;;;;3.03;2.83;;;2.90;99.90;;;;;;4987625;28;20270;-77
2022/01/20 00:47:37;;;;;;;4.82;3.55;;;2.80;99.90;;;;;;4988808;28;20178;-78
2022/01/20 00:50:05;;;;;;;3.53;3.15;;;2.90;99.90;;;;;;4989654;28;20219;-78
2022/01/20 00:52:31;;;;;;;4.95;3.38;;;2.90;99.90;;;;;;4990207;28;20218;-77
2022/01/20 00:54:56;;;;;;;3.43;2.90;;;3.00;99.90;;;;;;4972673;28;20208;-77
2022/01/20 00:57:22;;;;;;;3.60;3.23;;;3.00;99.90;;;;;;4987650;28;20240;-77
2022/01/20 00:59:48;;;;;;;3.53;3.23;;;2.90;99.90;;;;;;4988968;28;20211;-77
2022/01/20 01:02:13;;;;;;;3.10;2.80;;;3.00;99.90;;;;;;4987603;28;20186;-76
2022/01/20 01:04:40;;;;;;;3.13;2.90;;;3.00;99.90;;;;;;4988815;28;20342;-77
2022/01/20 01:09:51;;;;;;;4.60;3.55;;;3.00;99.90;;;;;;4991088;28;20221;-78
2022/01/20 01:12:26;;;;;;;5.73;3.30;;;3.00;99.90;;;;;;4974004;28;20191;-77
2022/01/20 01:14:53;;;;;;;3.25;3.00;;;2.90;99.90;;;;;;4987430;28;20213;-76
2022/01/20 01:22:29;;;;;;;4.93;3.05;;;2.90;99.90;;;;;;4991531;28;20212;-77
2022/01/20 01:24:57;;;;;;;4.82;3.30;;;3.00;99.90;;;;;;4992448;28;20321;-75
2022/01/20 01:27:25;;;;;;;6.35;3.25;;;3.00;99.90;;;;;;4992102;28;20707;-77
2022/01/20 01:30:09;;;;;;;4.55;3.00;;;3.10;99.90;;;;;;4992068;28;20214;-77
2022/01/20 01:35:07;;;;;;;3.50;3.20;;;3.00;99.90;;;;;;4991967;28;20210;-77
2022/01/20 01:40:00;;;;;;;5.33;3.37;;;2.80;99.90;;;;;;4991014;28;20214;-77
2022/01/20 01:42:34;;;;;;;4.07;3.10;;;2.80;99.90;;;;;;4990798;28;20217;-77
2022/01/20 01:45:20;;;;;;;4.22;3.38;;;2.70;99.90;;;;;;4975770;28;20265;-76
2022/01/20 01:47:47;;;;;;;3.53;3.22;;;2.60;99.90;;;;;;4992269;28;20178;-77
2022/01/20 01:50:13;;;;;;;5.53;3.38;;;2.50;99.90;;;;;;4992172;28;20209;-77
2022/01/20 01:52:39;;;;;;;3.85;3.35;;;2.30;99.90;;;;;;4992114;28;20298;-77
2022/01/20 01:55:05;;;;;;;4.20;3.33;;;2.20;99.90;;;;;;4992062;28;20309;-77
2022/01/20 01:57:31;;;;;;;4.85;3.80;;;2.10;99.90;;;;;;4990486;28;20190;-77
2022/01/20 01:59:57;;;;;;;4.13;3.47;;;2.10;99.90;;;;;;4992163;28;20271;-77
2022/01/20 02:02:23;;;;;;;4.23;3.67;;;1.90;99.90;;;;;;4992114;28;20430;-77
2022/01/20 02:04:49;;;;;;;5.22;3.60;;;1.90;99.90;;;;;;4990443;28;20471;-77
2022/01/20 02:07:53;;;;;;;5.22;3.60;;;1.90;99.90;;;;;;4990454;28;20660;-76
2022/01/20 02:18:48;;;;;;;5.00;4.05;;;1.80;99.90;;;;;;4992834;28;20241;-78
2022/01/20 02:21:14;;;;;;;4.53;3.75;;;1.80;99.90;;;;;;4978255;28;20275;-77
2022/01/20 02:23:40;;;;;;;4.28;3.90;;;1.80;99.90;;;;;;4991404;28;20343;-77
2022/01/20 02:26:06;;;;;;;4.70;4.27;;;1.80;99.90;;;;;;4991003;28;20206;-76
2022/01/20 02:28:32;;;;;;;4.20;3.30;;;1.90;99.90;;;;;;4992115;28;20241;-76
2022/01/20 02:30:58;;;;;;;5.15;3.85;;;1.90;99.90;;;;;;4991932;28;20183;-76
2022/01/20 02:33:26;;;;;;;4.70;4.22;;;2.00;99.90;;;;;;4991286;28;20216;-77
2022/01/20 02:35:56;;;;;;;4.35;3.95;;;2.10;99.90;;;;;;4993713;28;20213;-77
2022/01/20 02:38:40;;;;;;;3.60;3.27;;;2.10;99.90;;;;;;4992602;28;20618;-77
2022/01/20 02:46:37;;;;;;;3.80;3.50;;;2.10;99.90;;;;;;4993296;28;20196;-76
2022/01/20 02:49:03;;;;;;;3.75;3.30;;;2.10;99.90;;;;;;4991894;28;20212;-77
2022/01/20 02:51:28;;;;;;;3.78;3.47;;;2.20;99.90;;;;;;4992516;28;20189;-79
2022/01/20 02:53:54;;;;;;;6.80;4.10;;;2.20;99.90;;;;;;4991738;28;20606;-78
2022/01/20 02:56:20;;;;;;;4.50;3.13;;;2.10;99.90;;;;;;4974729;28;20320;-78
2022/01/20 02:58:46;;;;;;;4.27;3.40;;;2.20;99.90;;;;;;4992495;28;20686;-78
2022/01/20 03:01:12;;;;;;;4.63;3.90;;;2.20;99.90;;;;;;4990890;28;20186;-79
2022/01/20 03:03:37;;;;;;;3.25;3.05;;;2.30;99.90;;;;;;4990385;28;20245;-77
2022/01/20 03:06:04;;;;;;;4.47;3.40;;;2.10;99.90;;;;;;4991706;28;20292;-77
2022/01/20 03:08:29;;;;;;;3.08;2.78;;;2.10;99.90;;;;;;4990321;28;20220;-77
2022/01/20 03:10:55;;;;;;;4.03;3.43;;;2.20;99.90;;;;;;4992281;28;20197;-77
2022/01/20 03:13:21;;;;;;;4.60;3.37;;;2.00;99.90;;;;;;4990129;28;20194;-78
2022/01/20 03:15:47;;;;;;;4.00;3.10;;;2.10;99.90;;;;;;4992611;28;20533;-79
2022/01/20 03:18:13;;;;;;;4.20;3.80;;;2.10;99.90;;;;;;4990642;28;20191;-78
2022/01/20 03:20:39;;;;;;;5.90;3.60;;;2.10;99.90;;;;;;4990695;28;20260;-78
2022/01/20 03:23:04;;;;;;;3.80;3.15;;;2.20;99.90;;;;;;4990818;28;20286;-78
2022/01/20 03:25:30;;;;;;;4.13;3.73;;;2.20;99.90;;;;;;4990018;28;20289;-77
2022/01/20 03:27:57;;;;;;;3.53;3.23;;;2.20;99.90;;;;;;4991139;28;20461;-78
2022/01/20 03:30:23;;;;;;;3.42;3.13;;;2.20;99.90;;;;;;4989832;28;20601;-78
2022/01/20 03:32:49;;;;;;;3.25;2.95;;;2.20;99.90;;;;;;4991722;28;20189;-79
2022/01/20 03:35:15;;;;;;;2.83;2.55;;;2.20;99.90;;;;;;4989903;28;20239;-79
2022/01/20 03:37:41;;;;;;;5.25;3.55;;;2.20;99.90;;;;;;4989824;28;20280;-77
2022/01/20 03:40:08;;;;;;;3.07;2.80;;;2.20;99.90;;;;;;4990822;28;20630;-77
2022/01/20 03:42:34;;;;;;;3.95;3.58;;;2.20;99.90;;;;;;4991061;28;20180;-77
2022/01/20 03:45:01;;;;;;;3.47;3.17;;;2.20;99.90;;;;;;4988808;28;20730;-77
2022/01/20 03:47:26;;;;;;;3.33;3.00;;;2.20;99.90;;;;;;4990050;28;20623;-77
2022/01/20 03:52:26;;;;;;;3.63;3.03;;;2.20;99.90;;;;;;4990039;28;20827;-76
2022/01/20 03:54:51;;;;;;;4.20;3.33;;;2.20;99.90;;;;;;4991174;28;20203;-76
2022/01/20 03:57:18;;;;;;;3.93;3.53;;;2.20;99.90;;;;;;4989859;28;20201;-77
2022/01/20 03:59:44;;;;;;;3.50;3.20;;;2.10;99.90;;;;;;4990677;28;20190;-77
2022/01/20 04:02:10;;;;;;;3.00;2.80;;;2.10;99.90;;;;;;4989773;28;20194;-77
2022/01/20 04:04:35;;;;;;;3.10;2.90;;;2.10;99.90;;;;;;4990791;28;20205;-77
2022/01/20 04:07:02;;;;;;;3.60;3.33;;;2.10;99.90;;;;;;4990963;28;20188;-77
2022/01/20 04:09:28;;;;;;;3.25;2.92;;;2.10;99.90;;;;;;4989899;28;20207;-74
2022/01/20 04:11:54;;;;;;;3.43;3.10;;;2.00;99.90;;;;;;4990896;28;20182;-77
2022/01/20 04:14:22;;;;;;;3.70;3.07;;;2.00;99.90;;;;;;4973680;28;20183;-77
2022/01/20 04:17:04;;;;;;;3.85;3.20;;;2.00;99.90;;;;;;4990419;28;20671;-77
2022/01/20 04:19:32;;;;;;;3.00;2.80;;;2.00;99.90;;;;;;4993075;28;20172;-77
2022/01/20 04:22:00;;;;;;;3.20;2.90;;;2.00;99.90;;;;;;4996986;28;20190;-77
2022/01/20 04:24:26;;;;;;;4.07;3.25;;;2.00;99.90;;;;;;4998687;28;20195;-77
2022/01/20 04:26:51;;;;;;;3.30;2.97;;;2.00;99.90;;;;;;4974293;28;20656;-77
2022/01/20 04:29:17;;;;;;;3.27;3.00;;;2.10;99.90;;;;;;4991199;28;20207;-77
2022/01/20 04:31:44;;;;;;;2.87;2.70;;;2.00;99.90;;;;;;4990185;28;20425;-78
2022/01/20 04:34:11;;;;;;;2.55;2.35;;;2.00;99.90;;;;;;4989905;28;20420;-78
2022/01/20 04:36:41;;;;;;;2.78;2.58;;;1.90;99.90;;;;;;4988368;28;20195;-77
2022/01/20 04:39:11;;;;;;;3.63;2.90;;;2.00;99.90;;;;;;4989775;28;20174;-77
2022/01/20 04:41:37;;;;;;;2.28;2.13;;;2.00;99.90;;;;;;4989925;28;20265;-77
2022/01/20 04:44:08;;;;;;;1.77;1.63;;;2.00;99.90;;;;;;4988294;28;20739;-77
2022/01/20 04:46:43;;;;;;;3.20;2.72;;;2.00;99.90;;;;;;4989196;28;20179;-77
2022/01/20 04:57:35;;;;;;;2.83;2.55;;;2.10;99.90;;;;;;4989973;28;20177;-75
2022/01/20 05:00:00;;;;;;;2.37;2.17;;;2.10;99.90;;;;;;4988942;28;20269;-76
2022/01/20 05:02:28;;;;;;;2.43;2.23;;;2.10;99.90;;;;;;4990205;28;20655;-75
2022/01/20 05:04:54;;;;;;;1.65;1.55;;;2.10;99.90;;;;;;4988430;28;20209;-76
2022/01/20 05:07:24;;;;;;;2.03;1.93;;;2.10;99.90;;;;;;4989588;28;20195;-75
2022/01/20 05:09:51;;;;;;;1.83;1.73;;;2.10;99.90;;;;;;4972664;28;20221;-76
2022/01/20 05:12:23;;;;;;;2.20;2.00;;;2.10;99.90;;;;;;4988231;28;20233;-75
2022/01/20 05:14:48;;;;;;;2.10;1.90;;;2.10;99.90;;;;;;4989479;28;20203;-75
2022/01/20 05:17:14;;;;;;;2.60;2.40;;;2.10;99.90;;;;;;4987849;28;20189;-75
2022/01/20 05:19:40;;;;;;;3.40;2.00;;;2.10;99.90;;;;;;4989275;28;20269;-75
2022/01/20 05:22:06;;;;;;;1.80;1.67;;;2.20;99.90;;;;;;4988040;28;20199;-76
2022/01/20 05:24:31;;;;;;;1.77;1.63;;;2.20;99.90;;;;;;4989074;28;20210;-75
2022/01/20 05:26:58;;;;;;;1.60;1.50;;;2.20;99.90;;;;;;4987768;28;20194;-73
2022/01/20 05:29:24;;;;;;;5.15;1.85;;;2.20;99.90;;;;;;4985941;28;20219;-74
2022/01/20 05:31:51;;;;;;;2.25;2.05;;;2.20;99.90;;;;;;4970031;28;20571;-75
2022/01/20 05:34:18;;;;;;;1.50;1.40;;;2.30;99.90;;;;;;4985984;28;20249;-75
2022/01/20 05:36:46;;;;;;;1.63;1.52;;;2.30;99.90;;;;;;4987514;28;20196;-75
2022/01/20 05:39:12;;;;;;;1.63;1.45;;;2.30;99.90;;;;;;4987708;28;20191;-75
2022/01/20 05:41:37;;;;;;;1.63;1.53;;;2.30;99.90;;;;;;4986505;28;20197;-75
2022/01/20 05:44:03;;;;;;;1.77;1.67;;;2.30;99.90;;;;;;4987862;28;20554;-75
2022/01/20 05:46:36;;;;;;;1.30;1.20;;;2.30;99.90;;;;;;4987790;28;20207;-74
2022/01/20 05:49:08;;;;;;;1.60;1.50;;;2.40;99.90;;;;;;4987877;28;20277;-74
2022/01/20 05:51:41;;;;;;;1.30;1.20;;;2.50;99.90;;;;;;4986568;28;20178;-74
2022/01/20 05:54:07;;;;;;;1.35;1.25;;;2.30;99.90;;;;;;4988211;28;20652;-75
2022/01/20 05:56:32;;;;;;;2.05;1.92;;;2.30;99.90;;;;;;4988229;28;20189;-74
2022/01/20 05:58:59;;;;;;;1.50;1.40;;;2.30;99.90;;;;;;4970528;28;20200;-74
2022/01/20 06:01:26;;;;;;;1.42;1.33;;;2.40;99.90;;;;;;4988185;28;20267;-73
2022/01/20 06:03:52;;;;;;;0.90;0.90;;;2.40;99.90;;;;;;4988047;28;20666;-73
2022/01/20 06:06:18;;;;;;;1.73;1.55;;;2.30;99.90;;;;;;4987991;28;20217;-73
2022/01/20 06:08:44;;;;;;;1.23;1.17;;;2.30;99.90;;;;;;4990050;28;20217;-73
2022/01/20 06:11:09;;;;;;;1.10;1.10;;;2.40;99.90;;;;;;4990385;28;20201;-75
2022/01/20 06:13:35;;;;;;;1.13;1.07;;;2.30;99.90;;;;;;4991528;28;20437;-75
2022/01/20 06:16:02;;;;;;;2.50;1.63;;;2.30;99.90;;;;;;4991429;28;20434;-75
2022/01/20 06:18:27;;;;;;;1.75;1.65;;;2.20;99.90;;;;;;4991566;28;20419;-75
2022/01/20 06:20:54;;;;;;;1.37;1.27;;;2.20;99.90;;;;;;4990506;28;20205;-74
2022/01/20 06:23:20;;;;;;;1.10;1.10;;;2.20;99.90;;;;;;4974531;28;21097;-75
2022/01/20 06:25:47;;;;;;;1.48;1.38;;;2.20;99.90;;;;;;4991218;28;20204;-74
2022/01/20 06:28:13;;;;;;;1.20;1.10;;;2.30;99.90;;;;;;4991061;28;20218;-75
2022/01/20 06:30:40;;;;;;;1.55;1.45;;;2.30;99.90;;;;;;4990948;28;20195;-73
2022/01/20 06:33:05;;;;;;;1.50;1.40;;;2.20;99.90;;;;;;4990976;28;20175;-74
2022/01/20 06:35:32;;;;;;;0.93;0.93;;;2.30;99.90;;;;;;4990788;28;20209;-74
2022/01/20 06:37:58;;;;;;;1.60;1.15;;;2.20;99.90;;;;;;4991056;28;20271;-74
2022/01/20 06:40:24;;;;;;;1.23;1.23;;;2.20;99.90;;;;;;4991047;28;20281;-75
2022/01/20 06:42:49;;;;;;;1.30;1.20;;;2.10;99.90;;;;;;4991122;28;20425;-74
2022/01/20 06:45:17;;;;;;;3.30;1.17;;;2.10;99.90;;;;;;4989518;28;20241;-75
2022/01/20 06:47:43;;;;;;;1.15;1.13;;;2.10;99.90;;;;;;4991163;28;20221;-74
2022/01/20 06:50:11;;;;;;;4.75;3.50;;;2.20;99.90;;;;;;4991241;28;20262;-73
2022/01/20 06:52:37;;;;;;;4.25;2.40;;;2.10;99.90;;;;;;4991046;28;20194;-74
2022/01/20 06:55:05;;;;;;;1.40;1.30;;;2.10;99.90;;;;;;4991254;28;20619;-75
2022/01/20 06:57:32;;;;;;;0.90;0.90;;;2.20;99.90;;;;;;4989727;28;20188;-75
2022/01/20 06:59:58;;;;;;;1.10;1.00;;;2.10;99.90;;;;;;4991095;28;20191;-73
2022/01/20 07:02:24;;;;;;;37.00;17.43;;;2.10;99.90;;;;;;4990983;28;20182;-74
2022/01/20 07:04:50;;;;;;;23.25;12.93;;;2.20;99.90;;;;;;4990861;28;20211;-73
2022/01/20 07:07:16;;;;;;;31.85;15.45;;;2.20;99.90;;;;;;4990963;28;20198;-75
2022/01/20 07:09:43;;;;;;;9.05;4.55;;;2.20;99.90;;;;;;4990983;28;20222;-74
2022/01/20 07:12:10;;;;;;;3.35;2.70;;;2.20;99.90;;;;;;4991095;28;20187;-75
2022/01/20 07:14:36;;;;;;;1.80;1.70;;;2.20;99.90;;;;;;4991060;28;20201;-75
2022/01/20 07:17:02;;;;;;;1.20;1.10;;;2.20;99.90;;;;;;4989590;28;20680;-73
2022/01/20 07:19:27;;;;;;;1.30;1.17;;;2.30;99.90;;;;;;4989672;28;20191;-75
2022/01/20 07:21:53;;;;;;;1.53;1.43;;;2.20;99.90;;;;;;4991209;28;20434;-75
2022/01/20 07:24:19;;;;;;;1.43;1.33;;;2.20;99.90;;;;;;4989833;28;20228;-75
2022/01/20 07:26:44;;;;;;;1.63;1.40;;;2.30;99.90;;;;;;4990973;28;20199;-74
2022/01/20 07:29:10;;;;;;;1.60;1.30;;;2.30;99.90;;;;;;4990841;28;20220;-73
2022/01/20 07:31:36;;;;;;;2.53;1.20;;;2.30;99.90;;;;;;4990814;28;20266;-75
2022/01/20 07:34:02;;;;;;;2.73;1.37;;;2.30;99.90;;;;;;4990815;28;20254;-75
2022/01/20 07:36:27;;;;;;;1.63;1.53;;;2.30;99.90;;;;;;4973262;28;20206;-73
2022/01/20 07:38:53;;;;;;;1.80;1.70;;;2.30;99.90;;;;;;4990613;28;20927;-73
2022/01/20 07:41:19;;;;;;;1.70;1.60;;;2.30;99.90;;;;;;4989422;28;20194;-75
2022/01/20 07:43:45;;;;;;;1.77;1.60;;;2.40;99.90;;;;;;4990692;28;20441;-74
2022/01/20 07:46:11;;;;;;;1.63;1.52;;;2.40;99.90;;;;;;4990704;28;20201;-75
2022/01/20 07:48:37;;;;;;;1.93;1.83;;;2.40;99.90;;;;;;4989172;28;21103;-73
2022/01/20 07:51:05;;;;;;;1.73;1.63;;;2.40;99.90;;;;;;4990313;28;20186;-75
2022/01/20 07:53:32;;;;;;;1.85;1.70;;;2.40;99.90;;;;;;4990272;28;20201;-75
2022/01/20 07:55:58;;;;;;;2.53;1.70;;;2.30;99.90;;;;;;4990166;28;20511;-75
2022/01/20 07:58:24;;;;;;;2.00;1.90;;;2.40;99.90;;;;;;4990194;28;20273;-74
2022/01/20 08:00:50;;;;;;;1.73;1.63;;;2.40;99.90;;;;;;4972313;28;20205;-75
2022/01/20 08:03:15;;;;;;;2.00;1.90;;;2.40;99.90;;;;;;4990116;28;20241;-75
2022/01/20 08:05:41;;;;;;;1.50;1.40;;;2.40;99.90;;;;;;4990086;28;20618;-75
2022/01/20 08:08:07;;;;;;;2.13;1.93;;;2.50;99.90;;;;;;4989868;28;20187;-75
2022/01/20 08:10:34;;;;;;;1.77;1.67;;;2.40;99.90;;;;;;4989853;28;20302;-75
2022/01/20 08:13:00;;;;;;;2.85;1.60;;;2.50;99.90;;;;;;4990097;28;20187;-75
2022/01/20 08:15:25;;;;;;;1.60;1.50;;;2.50;99.90;;;;;;4988556;28;20211;-75
2022/01/20 08:17:51;;;;;;;1.93;1.80;;;2.50;99.90;;;;;;4972466;28;20182;-75
2022/01/20 08:20:16;;;;;;;2.97;1.70;;;2.40;99.90;;;;;;4989607;28;20196;-75
2022/01/20 08:22:42;;;;;;;2.30;1.83;;;2.40;99.90;;;;;;4971597;28;20202;-75
2022/01/20 08:25:17;;;;;;;1.77;1.67;;;2.40;99.90;;;;;;4989124;28;20288;-75
2022/01/20 08:27:44;;;;;;;2.03;1.92;;;2.40;99.90;;;;;;4987600;28;20202;-74
2022/01/20 08:30:15;;;;;;;7.70;2.15;;;2.30;99.90;;;;;;4988581;28;20210;-75
2022/01/20 08:32:43;;;;;;;2.65;1.60;;;2.50;99.90;;;;;;4988934;28;20660;-74
2022/01/20 08:35:09;;;;;;;3.35;1.80;;;2.50;99.90;;;;;;4989066;28;20206;-74
2022/01/20 08:37:37;;;;;;;3.45;1.73;;;2.50;99.90;;;;;;4989047;28;20274;-75
2022/01/20 08:40:05;;;;;;;3.35;1.90;;;2.60;99.90;;;;;;4988547;28;20191;-74
2022/01/20 08:42:32;;;;;;;2.15;1.88;;;2.70;99.90;;;;;;4988448;28;20188;-75
2022/01/20 08:44:57;;;;;;;2.25;2.05;;;2.80;99.90;;;;;;4986816;28;20212;-75
2022/01/20 08:47:23;;;;;;;1.80;1.70;;;2.90;99.90;;;;;;4988218;28;20230;-75
2022/01/20 08:49:50;;;;;;;8.20;2.40;;;2.90;99.90;;;;;;4986686;28;20260;-75
2022/01/20 08:52:16;;;;;;;1.73;1.63;;;3.10;99.90;;;;;;4988245;28;20282;-74
2022/01/20 08:54:45;;;;;;;2.25;2.15;;;3.10;99.90;;;;;;4988305;28;20210;-74
2022/01/20 08:57:11;;;;;;;2.42;2.00;;;3.00;99.90;;;;;;4988579;28;20185;-75
2022/01/20 08:59:40;;;;;;;2.78;2.53;;;2.90;99.90;;;;;;4988748;28;20193;-75
2022/01/20 09:02:06;;;;;;;2.47;1.88;;;2.90;99.90;;;;;;4988996;28;20217;-75
2022/01/20 09:04:33;;;;;;;3.33;2.67;;;2.90;99.90;;;;;;4988359;28;20285;-75
2022/01/20 09:06:58;;;;;;;5.40;3.30;;;3.00;99.90;;;;;;4988442;28;20435;-76
2022/01/20 09:09:24;;;;;;;4.13;2.97;;;3.00;99.90;;;;;;4988522;28;20215;-75
2022/01/20 09:17:20;;;;;;;2.50;2.28;;;3.00;99.90;;;;;;4987185;28;20208;-75
2022/01/20 09:19:49;;;;;;;2.73;2.30;;;2.90;99.90;;;;;;4986560;28;20998;-75
2022/01/20 09:22:15;;;;;;;2.63;2.45;;;2.90;99.90;;;;;;4988186;28;20191;-74
2022/01/20 09:24:42;;;;;;;5.55;2.70;;;3.00;99.90;;;;;;4986863;28;20281;-75
2022/01/20 09:27:08;;;;;;;4.03;3.08;;;2.90;99.90;;;;;;4988437;28;20235;-75
2022/01/20 09:29:33;;;;;;;4.30;2.27;;;2.90;99.90;;;;;;4988401;28;20219;-75
2022/01/20 09:32:00;;;;;;;4.63;3.10;;;2.90;99.90;;;;;;4988739;28;20414;-75
2022/01/20 09:34:25;;;;;;;5.90;2.60;;;2.80;99.90;;;;;;4988372;28;20724;-75
2022/01/20 09:36:52;;;;;;;3.60;2.80;;;2.90;99.90;;;;;;4988284;28;20189;-74
2022/01/20 09:39:17;;;;;;;3.10;2.85;;;3.00;99.90;;;;;;4986745;28;20197;-75
2022/01/20 09:41:46;;;;;;;6.97;3.53;;;3.10;99.90;;;;;;4986886;28;20570;-75
2022/01/20 09:44:12;;;;;;;3.15;2.85;;;3.10;99.90;;;;;;4989597;28;20570;-75
2022/01/20 09:46:38;;;;;;;5.90;2.37;;;3.10;99.90;;;;;;4991920;28;20188;-75
2022/01/20 09:49:04;;;;;;;3.17;2.88;;;3.20;99.90;;;;;;4990521;28;20216;-75
2022/01/20 09:51:30;;;;;;;4.60;2.80;;;3.40;99.90;;;;;;4990436;28;20702;-75
2022/01/20 09:53:56;;;;;;;3.30;2.70;;;3.40;99.90;;;;;;4973576;28;21268;-75
2022/01/20 09:56:22;;;;;;;5.30;2.67;;;3.40;99.90;;;;;;4991485;28;20591;-75
2022/01/20 09:58:48;;;;;;;5.95;3.22;;;3.30;99.90;;;;;;4990987;28;20184;-75
2022/01/20 10:01:15;;;;;;;3.73;2.43;;;3.30;99.90;;;;;;4991111;28;20611;-75
2022/01/20 10:03:46;;;;;;;3.63;2.50;;;3.40;99.90;;;;;;4991189;28;20187;-75
2022/01/20 10:06:14;;;;;;;2.30;2.20;;;3.40;99.90;;;;;;4991097;28;20213;-75
2022/01/20 10:08:40;;;;;;;4.45;2.63;;;3.50;99.90;;;;;;4989582;28;20221;-75
2022/01/20 10:11:09;;;;;;;6.40;2.50;;;3.50;99.90;;;;;;4991016;28;20188;-75
2022/01/20 10:13:40;;;;;;;6.38;2.47;;;3.60;99.90;;;;;;4990931;28;20194;-75
2022/01/20 10:16:12;;;;;;;3.10;2.15;;;3.60;99.90;;;;;;4990865;28;20737;-75
2022/01/20 10:18:54;;;;;;;6.28;2.70;;;3.70;99.90;;;;;;4990918;28;20526;-75
2022/01/20 10:21:31;;;;;;;5.45;2.10;;;3.70;99.90;;;;;;4989518;28;20291;-75
2022/01/20 10:24:08;;;;;;;7.18;2.40;;;3.70;99.90;;;;;;4990963;28;20266;-75
2022/01/20 10:26:34;;;;;;;2.95;2.25;;;3.70;99.90;;;;;;4989275;28;20309;-75
2022/01/20 10:29:07;;;;;;;4.30;2.23;;;3.70;99.90;;;;;;4989337;28;20286;-75
2022/01/20 10:31:40;;;;;;;6.30;1.83;;;3.70;99.90;;;;;;4990783;28;20422;-75
2022/01/20 10:34:34;;;;;;;6.68;2.35;;;3.60;99.90;;;;;;4989463;28;20275;-75
2022/01/20 10:37:24;;;;;;;8.18;2.58;;;3.70;99.90;;;;;;4990727;28;20235;-75
2022/01/20 10:39:49;;;;;;;5.68;1.55;;;3.60;99.90;;;;;;4990675;28;20214;-75
2022/01/20 10:42:24;;;;;;;2.53;2.00;;;3.90;99.90;;;;;;4990658;28;20212;-75
2022/01/20 10:44:53;;;;;;;10.30;2.58;;;4.00;99.90;;;;;;4990351;28;20629;-75
2022/01/20 10:47:23;;;;;;;6.22;2.85;;;4.00;99.90;;;;;;4990409;28;20277;-75
2022/01/20 10:49:49;;;;;;;7.40;2.13;;;3.90;99.90;;;;;;4988763;28;20269;-75
2022/01/20 10:52:22;;;;;;;8.80;2.65;;;4.00;99.90;;;;;;4988753;28;20199;-74
2022/01/20 10:54:51;;;;;;;3.55;2.10;;;3.90;99.90;;;;;;4988203;28;20200;-76
2022/01/20 10:57:31;;;;;;;6.57;2.90;;;3.90;99.90;;;;;;4990338;28;20194;-75
2022/01/20 11:00:06;;;;;;;7.63;2.33;;;4.00;99.90;;;;;;4990864;28;21005;-76
2022/01/20 11:02:31;;;;;;;9.85;2.50;;;4.00;99.90;;;;;;4990934;28;20274;-76
2022/01/20 11:04:59;;;;;;;8.03;2.20;;;4.10;99.90;;;;;;4990601;28;20339;-76
2022/01/20 11:07:25;;;;;;;9.82;2.63;;;4.10;99.90;;;;;;4990839;28;20188;-75
2022/01/20 11:10:03;;;;;;;8.18;2.83;;;4.20;99.90;;;;;;4990468;28;21009;-75
2022/01/20 11:12:29;;;;;;;7.97;4.30;;;4.00;99.90;;;;;;4995499;28;20254;-75
2022/01/20 11:14:56;;;;;;;6.90;2.38;;;4.10;99.90;;;;;;4992060;28;20998;-75
2022/01/20 11:17:25;;;;;;;7.78;2.20;;;4.00;99.90;;;;;;4990435;28;20181;-74
2022/01/20 11:19:52;;;;;;;3.10;2.10;;;4.00;99.90;;;;;;4990287;28;20625;-75
2022/01/20 11:22:20;;;;;;;6.18;2.13;;;3.90;99.90;;;;;;4989023;28;20192;-75
2022/01/20 11:24:57;;;;;;;9.30;2.55;;;4.00;99.90;;;;;;4988708;28;20223;-75
2022/01/20 11:27:41;;;;;;;9.85;2.80;;;4.10;99.90;;;;;;4990098;28;20194;-75
2022/01/20 11:30:21;;;;;;;5.90;1.85;;;4.20;99.90;;;;;;4987853;28;20215;-75
2022/01/20 11:33:11;;;;;;;5.75;1.85;;;4.30;99.90;;;;;;4988063;28;20274;-75
2022/01/20 11:35:54;;;;;;;12.15;2.50;;;4.30;99.90;;;;;;4972135;28;20588;-75
2022/01/20 11:38:23;;;;;;;5.40;1.90;;;4.30;99.90;;;;;;4988486;28;20276;-75
2022/01/20 11:40:50;;;;;;;10.43;2.10;;;4.40;99.90;;;;;;4989529;28;20176;-75
2022/01/20 11:43:16;;;;;;;14.32;3.30;;;4.30;99.90;;;;;;4989530;28;20784;-75
2022/01/20 11:45:50;;;;;;;7.07;2.23;;;4.30;99.90;;;;;;4989265;28;20207;-75
2022/01/20 11:48:24;;;;;;;4.90;2.00;;;4.20;99.90;;;;;;4989350;28;20275;-75
2022/01/20 11:51:09;;;;;;;3.80;2.10;;;4.20;99.90;;;;;;4987469;28;20439;-75
2022/01/20 11:53:42;;;;;;;13.38;2.55;;;4.10;99.90;;;;;;4987415;28;20471;-75
2022/01/20 11:56:09;;;;;;;6.38;2.00;;;4.00;99.90;;;;;;4989140;28;20216;-75
2022/01/20 11:58:35;;;;;;;14.20;2.60;;;4.00;99.90;;;;;;4987643;28;20954;-75
2022/01/20 12:01:02;;;;;;;11.40;2.90;;;4.00;99.90;;;;;;4987445;28;20191;-76
2022/01/20 12:03:29;;;;;;;6.47;2.53;;;4.00;99.90;;;;;;4988686;28;20418;-76
2022/01/20 12:06:02;;;;;;;9.27;2.88;;;4.10;99.90;;;;;;4987921;28;20503;-75
2022/01/20 12:08:28;;;;;;;8.52;2.38;;;4.10;99.90;;;;;;4988644;28;20178;-75
2022/01/20 12:11:07;;;;;;;6.25;2.65;;;4.20;99.90;;;;;;4988745;28;20196;-75
2022/01/20 12:13:44;;;;;;;2.73;2.33;;;4.10;99.90;;;;;;4987365;28;20196;-76
2022/01/20 12:16:09;;;;;;;7.37;3.53;;;4.00;99.90;;;;;;4988384;28;20435;-75
2022/01/20 12:18:35;;;;;;;4.57;2.57;;;4.10;99.90;;;;;;4988466;28;20768;-75
2022/01/20 12:21:04;;;;;;;4.40;2.33;;;4.20;99.90;;;;;;4971258;28;20189;-74
2022/01/20 12:23:30;;;;;;;4.18;1.60;;;4.30;99.90;;;;;;4987111;28;20184;-74
2022/01/20 12:26:03;;;;;;;5.80;1.97;;;4.40;99.90;;;;;;4987150;28;20211;-75
2022/01/20 12:28:30;;;;;;;13.60;2.55;;;4.50;99.90;;;;;;4988368;28;20430;-75
2022/01/20 12:31:05;;;;;;;3.00;1.60;;;4.60;99.90;;;;;;4988276;28;20552;-75
2022/01/20 12:33:33;;;;;;;6.32;1.77;;;4.70;99.90;;;;;;4988330;28;20420;-75
2022/01/20 12:36:03;;;;;;;3.05;1.70;;;4.80;99.90;;;;;;4988344;28;20291;-75
2022/01/20 12:38:35;;;;;;;4.10;2.10;;;4.90;99.90;;;;;;4992517;28;20200;-74
2022/01/20 12:41:14;;;;;;;4.70;2.25;;;5.00;99.90;;;;;;5003277;28;20263;-76
2022/01/20 12:44:09;;;;;;;4.17;2.17;;;5.10;99.90;;;;;;4987070;28;20188;-75
2022/01/20 12:46:39;;;;;;;3.92;1.75;;;4.90;99.90;;;;;;4988172;28;20436;-75
2022/01/20 12:49:13;;;;;;;4.63;2.10;;;4.90;99.90;;;;;;4987981;28;20222;-75
2022/01/20 12:51:53;;;;;;;4.75;1.50;;;4.90;99.90;;;;;;4988041;28;20184;-75
2022/01/20 12:54:36;;;;;;;6.47;1.90;;;4.70;99.90;;;;;;4988065;28;20187;-75
2022/01/20 12:57:03;;;;;;;5.70;1.60;;;4.50;99.90;;;;;;4988295;28;20214;-75
2022/01/20 12:59:38;;;;;;;7.07;1.65;;;4.40;99.90;;;;;;5002129;28;20419;-75
2022/01/20 13:02:07;;;;;;;5.70;1.92;;;4.40;99.90;;;;;;4995667;28;20196;-75
2022/01/20 13:04:35;;;;;;;4.30;1.80;;;4.30;99.90;;;;;;4987896;28;20219;-75
2022/01/20 13:07:02;;;;;;;5.80;2.60;;;4.20;99.90;;;;;;4970006;28;20443;-75
2022/01/20 13:09:44;;;;;;;6.47;2.50;;;4.20;99.90;;;;;;4986629;28;20468;-75
2022/01/20 13:12:11;;;;;;;6.05;2.13;;;4.20;99.90;;;;;;4987883;28;20414;-75
2022/01/20 13:14:51;;;;;;;6.75;2.63;;;4.20;99.90;;;;;;4986187;28;20584;-75
2022/01/20 13:17:24;;;;;;;4.38;2.70;;;4.20;99.90;;;;;;4989510;28;20181;-75
2022/01/20 13:19:52;;;;;;;6.45;2.70;;;4.30;99.90;;;;;;4990328;28;20745;-75
2022/01/20 13:22:28;;;;;;;9.37;2.37;;;4.30;99.90;;;;;;4990539;28;20233;-76
2022/01/20 13:25:07;;;;;;;10.07;2.70;;;4.20;99.90;;;;;;4991685;28;20452;-75
2022/01/20 13:27:33;;;;;;;4.27;1.00;;;4.20;99.90;;;;;;4991764;28;20195;-75
2022/01/20 13:29:59;;;;;;;3.43;1.13;;;3.60;99.90;;;;;;4991364;28;20470;-75
2022/01/20 13:32:24;;;;;;;1.50;0.90;;;2.90;99.90;;;;;;4991571;28;20423;-75
2022/01/20 13:34:59;;;;;;;3.33;1.40;;;2.40;99.90;;;;;;4991219;28;20208;-75
2022/01/20 13:37:26;;;;;;;1.77;1.48;;;2.10;99.90;;;;;;4991247;28;20678;-74
2022/01/20 13:39:56;;;;;;;3.80;1.50;;;2.00;99.90;;;;;;4991207;28;20695;-75
2022/01/20 13:45:15;;;;;;;3.42;2.05;;;1.70;99.90;;;;;;4991254;28;20211;-75
2022/01/20 13:47:57;;;;;;;7.45;1.50;;;1.60;99.90;;;;;;4991131;28;20217;-75
2022/01/20 13:50:30;;;;;;;6.40;2.75;;;1.60;99.90;;;;;;4991112;28;20320;-74
2022/01/20 13:52:56;;;;;;;6.30;3.80;;;1.60;99.90;;;;;;4989676;28;20539;-75
2022/01/20 13:55:24;;;;;;;8.88;2.97;;;1.60;99.90;;;;;;4991126;28;20207;-75
2022/01/20 13:57:51;;;;;;;4.80;3.20;;;1.60;99.90;;;;;;4991281;28;20174;-75
2022/01/20 14:00:24;;;;;;;7.53;2.35;;;1.50;99.90;;;;;;4990154;28;20198;-75
2022/01/20 14:02:50;;;;;;;6.82;2.20;;;1.60;99.90;;;;;;4991528;28;20208;-74
2022/01/20 14:05:18;;;;;;;7.60;3.03;;;1.60;99.90;;;;;;4993265;28;20215;-74
2022/01/20 14:07:45;;;;;;;7.25;3.58;;;1.60;99.90;;;;;;4993343;28;20185;-75
2022/01/20 14:10:11;;;;;;;9.45;2.70;;;1.70;99.90;;;;;;4993169;28;20244;-75
2022/01/20 14:12:36;;;;;;;5.03;2.53;;;1.70;99.90;;;;;;4993174;28;20179;-74